createdAt,value
2023-05-09T00:00:46.910Z,1007.02
2023-05-09T00:01:47.357Z,1007.03
2023-05-09T00:02:46.927Z,1006.99
2023-05-09T00:03:46.924Z,1006.99
2023-05-09T00:04:47.159Z,1006.96
2023-05-09T00:05:46.840Z,1006.96
2023-05-09T00:06:46.834Z,1006.98
2023-05-09T00:07:46.949Z,1006.93
2023-05-09T00:08:46.849Z,1006.87
2023-05-09T00:09:47.067Z,1006.87
2023-05-09T00:10:47.071Z,1006.83
2023-05-09T00:11:47.206Z,1006.84
2023-05-09T00:12:46.984Z,1006.84
2023-05-09T00:13:46.788Z,1006.81
2023-05-09T00:14:47.319Z,1006.79
2023-05-09T00:15:47.326Z,1006.84
2023-05-09T00:16:47.457Z,1006.81
2023-05-09T00:17:47.502Z,1006.80
2023-05-09T00:18:46.924Z,1006.74
2023-05-09T00:19:46.744Z,1006.74
2023-05-09T00:20:46.730Z,1006.75
2023-05-09T00:21:47.449Z,1006.76
2023-05-09T00:22:46.740Z,1006.78
2023-05-09T00:23:47.167Z,1006.79
2023-05-09T00:24:46.762Z,1006.73
2023-05-09T00:25:46.769Z,1006.77
2023-05-09T00:26:46.687Z,1006.79
2023-05-09T00:27:46.717Z,1006.72
2023-05-09T00:28:46.685Z,1006.68
2023-05-09T00:29:46.690Z,1006.67
2023-05-09T00:30:46.700Z,1006.67
2023-05-09T00:31:46.726Z,1006.65
2023-05-09T00:32:46.736Z,1006.63
2023-05-09T00:33:46.726Z,1006.62
2023-05-09T00:34:46.630Z,1006.58
2023-05-09T00:35:46.757Z,1006.57
2023-05-09T00:36:46.761Z,1006.56
2023-05-09T00:37:46.761Z,1006.52
2023-05-09T00:38:46.764Z,1006.55
2023-05-09T00:39:46.862Z,1006.55
2023-05-09T00:40:46.771Z,1006.53
2023-05-09T00:41:46.885Z,1006.53
2023-05-09T00:42:46.889Z,1006.52
2023-05-09T00:43:46.792Z,1006.46
2023-05-09T00:44:46.687Z,1006.47
2023-05-09T00:45:46.834Z,1006.47
2023-05-09T00:46:47.013Z,1006.38
2023-05-09T00:47:47.048Z,1006.41
2023-05-09T00:48:46.632Z,1006.39
2023-05-09T00:49:46.623Z,1006.35
2023-05-09T00:50:47.053Z,1006.33
2023-05-09T00:51:47.052Z,1006.33
2023-05-09T00:52:47.058Z,1006.31
2023-05-09T00:53:47.065Z,1006.27
2023-05-09T00:54:46.659Z,1006.22
2023-05-09T00:55:47.094Z,1006.20
2023-05-09T00:56:46.695Z,1006.21
2023-05-09T00:57:46.487Z,1006.24
2023-05-09T00:58:46.889Z,1006.17
2023-05-09T00:59:46.501Z,1006.15
2023-05-09T01:00:46.508Z,1006.15
2023-05-09T01:01:46.586Z,1006.11
2023-05-09T01:02:46.482Z,1006.14
2023-05-09T01:03:46.509Z,1006.18
2023-05-09T01:04:46.422Z,1006.16
2023-05-09T01:05:46.431Z,1006.21
2023-05-09T01:06:46.441Z,1006.18
2023-05-09T01:07:46.564Z,1006.17
2023-05-09T01:08:46.561Z,1006.16
2023-05-09T01:09:46.462Z,1006.13
2023-05-09T01:10:46.588Z,1006.10
2023-05-09T01:11:46.385Z,1006.07
2023-05-09T01:12:46.596Z,1006.05
2023-05-09T01:13:46.392Z,1006.02
2023-05-09T01:14:46.493Z,1006.00
2023-05-09T01:15:46.501Z,1005.99
2023-05-09T01:16:46.435Z,1006.01
2023-05-09T01:17:46.686Z,1006.00
2023-05-09T01:18:46.645Z,1006.01
2023-05-09T01:19:46.653Z,1006.01
2023-05-09T01:20:46.658Z,1005.97
2023-05-09T01:21:46.653Z,1005.94
2023-05-09T01:22:46.700Z,1005.98
2023-05-09T01:23:46.675Z,1005.94
2023-05-09T01:24:46.298Z,1005.95
2023-05-09T01:25:46.683Z,1005.90
2023-05-09T01:26:46.708Z,1005.91
2023-05-09T01:27:46.695Z,1005.93
2023-05-09T01:28:46.288Z,1005.89
2023-05-09T01:29:46.313Z,1005.89
2023-05-09T01:30:46.335Z,1005.91
2023-05-09T01:31:46.377Z,1005.94
2023-05-09T01:32:46.362Z,1005.88
2023-05-09T01:33:46.432Z,1005.94
2023-05-09T01:34:46.547Z,1005.89
2023-05-09T01:35:46.561Z,1005.91
2023-05-09T01:36:46.548Z,1005.95
2023-05-09T01:37:46.666Z,1005.92
2023-05-09T01:38:46.792Z,1005.91
2023-05-09T01:39:46.786Z,1005.84
2023-05-09T01:40:46.394Z,1005.88
2023-05-09T01:41:46.594Z,1005.89
2023-05-09T01:42:46.212Z,1005.92
2023-05-09T01:43:46.255Z,1005.86
2023-05-09T01:44:46.414Z,1005.87
2023-05-09T01:45:46.625Z,1005.88
2023-05-09T01:46:46.895Z,1005.86
2023-05-09T01:47:46.886Z,1005.86
2023-05-09T01:48:46.126Z,1005.89
2023-05-09T01:49:46.236Z,1005.85
2023-05-09T01:50:46.862Z,1005.86
2023-05-09T01:51:46.679Z,1005.88
2023-05-09T01:52:46.873Z,1005.87
2023-05-09T01:53:46.882Z,1005.83
2023-05-09T01:54:46.531Z,1005.81
2023-05-09T01:55:46.480Z,1005.81
2023-05-09T01:56:46.079Z,1005.82
2023-05-09T01:57:46.969Z,1005.85
2023-05-09T01:58:46.062Z,1005.81
2023-05-09T01:59:46.028Z,1005.73
2023-05-09T02:00:46.209Z,1005.82
2023-05-09T02:01:46.178Z,1005.82
2023-05-09T02:02:46.336Z,1005.75
2023-05-09T02:03:46.019Z,1005.73
2023-05-09T02:04:46.146Z,1005.80
2023-05-09T02:05:46.451Z,1005.78
2023-05-09T02:06:46.173Z,1005.70
2023-05-09T02:07:46.586Z,1005.72
2023-05-09T02:08:46.586Z,1005.75
2023-05-09T02:09:45.972Z,1005.67
2023-05-09T02:10:46.821Z,1005.66
2023-05-09T02:11:46.184Z,1005.68
2023-05-09T02:12:46.835Z,1005.65
2023-05-09T02:13:45.990Z,1005.66
2023-05-09T02:14:45.998Z,1005.66
2023-05-09T02:15:46.002Z,1005.68
2023-05-09T02:16:47.000Z,1005.68
2023-05-09T02:17:46.860Z,1005.62
2023-05-09T02:18:46.637Z,1005.66
2023-05-09T02:19:46.863Z,1005.63
2023-05-09T02:20:46.846Z,1005.64
2023-05-09T02:21:45.871Z,1005.67
2023-05-09T02:22:45.867Z,1005.70
2023-05-09T02:23:45.878Z,1005.69
2023-05-09T02:24:46.683Z,1005.63
2023-05-09T02:25:45.886Z,1005.62
2023-05-09T02:26:45.903Z,1005.72
2023-05-09T02:27:46.013Z,1005.71
2023-05-09T02:28:45.912Z,1005.64
2023-05-09T02:29:45.925Z,1005.66
2023-05-09T02:30:45.823Z,1005.66
2023-05-09T02:31:45.934Z,1005.64
2023-05-09T02:32:45.956Z,1005.61
2023-05-09T02:33:45.936Z,1005.57
2023-05-09T02:34:45.934Z,1005.58
2023-05-09T02:35:46.055Z,1005.54
2023-05-09T02:36:45.954Z,1005.54
2023-05-09T02:37:45.769Z,1005.50
2023-05-09T02:38:45.759Z,1005.49
2023-05-09T02:39:45.876Z,1005.51
2023-05-09T02:40:46.004Z,1005.57
2023-05-09T02:41:45.784Z,1005.56
2023-05-09T02:42:45.990Z,1005.56
2023-05-09T02:43:46.056Z,1005.57
2023-05-09T02:44:45.809Z,1005.56
2023-05-09T02:45:45.817Z,1005.56
2023-05-09T02:46:46.030Z,1005.51
2023-05-09T02:47:46.073Z,1005.50
2023-05-09T02:48:46.043Z,1005.52
2023-05-09T02:49:46.046Z,1005.51
2023-05-09T02:50:46.054Z,1005.53
2023-05-09T02:51:46.053Z,1005.52
2023-05-09T02:52:45.668Z,1005.48
2023-05-09T02:53:45.692Z,1005.54
2023-05-09T02:54:45.710Z,1005.50
2023-05-09T02:55:45.700Z,1005.51
2023-05-09T02:56:45.739Z,1005.50
2023-05-09T02:57:45.802Z,1005.49
2023-05-09T02:58:45.804Z,1005.53
2023-05-09T02:59:45.807Z,1005.52
2023-05-09T03:00:45.944Z,1005.46
2023-05-09T03:01:45.886Z,1005.45
2023-05-09T03:02:46.195Z,1005.41
2023-05-09T03:03:46.348Z,1005.43
2023-05-09T03:04:45.737Z,1005.42
2023-05-09T03:05:45.949Z,1005.43
2023-05-09T03:06:45.756Z,1005.38
2023-05-09T03:07:46.389Z,1005.46
2023-05-09T03:08:45.579Z,1005.42
2023-05-09T03:09:46.056Z,1005.45
2023-05-09T03:10:46.028Z,1005.42
2023-05-09T03:11:46.197Z,1005.42
2023-05-09T03:12:46.456Z,1005.39
2023-05-09T03:13:45.805Z,1005.39
2023-05-09T03:14:45.602Z,1005.39
2023-05-09T03:15:46.051Z,1005.41
2023-05-09T03:16:46.292Z,1005.36
2023-05-09T03:17:46.462Z,1005.34
2023-05-09T03:18:45.628Z,1005.34
2023-05-09T03:19:45.470Z,1005.38
2023-05-09T03:20:46.420Z,1005.28
2023-05-09T03:21:45.470Z,1005.37
2023-05-09T03:22:45.506Z,1005.26
2023-05-09T03:23:45.473Z,1005.28
2023-05-09T03:24:45.578Z,1005.28
2023-05-09T03:25:45.584Z,1005.22
2023-05-09T03:26:45.700Z,1005.24
2023-05-09T03:27:45.495Z,1005.18
2023-05-09T03:28:45.805Z,1005.19
2023-05-09T03:29:45.948Z,1005.20
2023-05-09T03:30:45.924Z,1005.17
2023-05-09T03:31:46.083Z,1005.18
2023-05-09T03:32:45.582Z,1005.16
2023-05-09T03:33:46.163Z,1005.23
2023-05-09T03:34:45.360Z,1005.19
2023-05-09T03:35:46.264Z,1005.21
2023-05-09T03:36:45.351Z,1005.21
2023-05-09T03:37:45.565Z,1005.23
2023-05-09T03:38:45.772Z,1005.22
2023-05-09T03:39:46.395Z,1005.17
2023-05-09T03:40:45.788Z,1005.16
2023-05-09T03:41:45.381Z,1005.20
2023-05-09T03:42:45.831Z,1005.23
2023-05-09T03:43:46.274Z,1005.20
2023-05-09T03:44:46.175Z,1005.23
2023-05-09T03:45:46.054Z,1005.24
2023-05-09T03:46:46.084Z,1005.26
2023-05-09T03:47:45.891Z,1005.29
2023-05-09T03:48:45.845Z,1005.27
2023-05-09T03:49:45.269Z,1005.26
2023-05-09T03:50:45.272Z,1005.24
2023-05-09T03:51:45.282Z,1005.29
2023-05-09T03:52:45.295Z,1005.23
2023-05-09T03:53:45.273Z,1005.24
2023-05-09T03:54:45.265Z,1005.24
2023-05-09T03:55:45.516Z,1005.19
2023-05-09T03:56:46.684Z,1005.19
2023-05-09T03:57:45.613Z,1005.17
2023-05-09T03:58:45.509Z,1005.16
2023-05-09T03:59:45.756Z,1005.15
2023-05-09T04:00:45.730Z,1005.12
2023-05-09T04:01:45.985Z,1005.13
2023-05-09T04:02:45.994Z,1005.05
2023-05-09T04:03:46.137Z,1005.14
2023-05-09T04:04:45.144Z,1005.09
2023-05-09T04:05:45.553Z,1005.13
2023-05-09T04:06:45.149Z,1005.08
2023-05-09T04:07:46.007Z,1005.06
2023-05-09T04:08:45.786Z,1005.05
2023-05-09T04:09:45.176Z,1004.99
2023-05-09T04:10:45.982Z,1004.99
2023-05-09T04:11:45.394Z,1004.96
2023-05-09T04:12:45.615Z,1005.00
2023-05-09T04:13:45.820Z,1004.95
2023-05-09T04:14:48.811Z,1004.99
2023-05-09T04:15:46.006Z,1004.90
2023-05-09T04:16:46.007Z,1004.91
2023-05-09T04:17:45.096Z,1004.93
2023-05-09T04:18:45.032Z,1004.90
2023-05-09T04:19:45.163Z,1004.89
2023-05-09T04:20:45.158Z,1004.85
2023-05-09T04:21:45.269Z,1004.90
2023-05-09T04:22:46.940Z,1004.90
2023-05-09T04:23:45.383Z,1004.91
2023-05-09T04:24:45.389Z,1004.85
2023-05-09T04:25:45.298Z,1004.83
2023-05-09T04:26:45.503Z,1004.89
2023-05-09T04:27:45.198Z,1004.84
2023-05-09T04:28:45.618Z,1004.86
2023-05-09T04:29:45.734Z,1004.88
2023-05-09T04:30:45.810Z,1004.90
2023-05-09T04:31:45.222Z,1004.89
2023-05-09T04:32:44.965Z,1004.88
2023-05-09T04:33:44.934Z,1004.87
2023-05-09T04:34:44.946Z,1004.81
2023-05-09T04:35:44.965Z,1004.79
2023-05-09T04:36:44.961Z,1004.85
2023-05-09T04:37:44.964Z,1004.80
2023-05-09T04:38:44.969Z,1004.80
2023-05-09T04:39:44.987Z,1004.85
2023-05-09T04:40:44.992Z,1004.87
2023-05-09T04:41:44.992Z,1004.81
2023-05-09T04:42:45.006Z,1004.81
2023-05-09T04:43:45.116Z,1004.80
2023-05-09T04:44:45.123Z,1004.75
2023-05-09T04:45:44.863Z,1004.78
2023-05-09T04:46:44.886Z,1004.75
2023-05-09T04:47:44.954Z,1004.79
2023-05-09T04:48:44.849Z,1004.79
2023-05-09T04:49:44.983Z,1004.80
2023-05-09T04:50:44.975Z,1004.80
2023-05-09T04:51:44.987Z,1004.74
2023-05-09T04:52:45.100Z,1004.71
2023-05-09T04:53:45.200Z,1004.71
2023-05-09T04:54:45.201Z,1004.71
2023-05-09T04:55:45.208Z,1004.68
2023-05-09T04:56:45.264Z,1004.73
2023-05-09T04:57:45.214Z,1004.73
2023-05-09T04:58:45.216Z,1004.73
2023-05-09T04:59:44.756Z,1004.70
2023-05-09T05:00:44.919Z,1004.69
2023-05-09T05:01:45.259Z,1004.69
2023-05-09T05:02:45.229Z,1004.71
2023-05-09T05:03:44.758Z,1004.69
2023-05-09T05:04:46.285Z,1004.68
2023-05-09T05:05:44.923Z,1004.66
2023-05-09T05:06:44.698Z,1004.64
2023-05-09T05:07:44.769Z,1004.61
2023-05-09T05:08:45.389Z,1004.57
2023-05-09T05:09:44.685Z,1004.56
2023-05-09T05:10:44.892Z,1004.51
2023-05-09T05:11:57.098Z,1004.45
2023-05-09T05:12:45.473Z,1004.44
2023-05-09T05:13:44.912Z,1004.51
2023-05-09T05:14:45.603Z,1004.49
2023-05-09T05:15:44.698Z,1004.44
2023-05-09T05:16:44.741Z,1004.43
2023-05-09T05:17:44.884Z,1004.38
2023-05-09T05:18:44.661Z,1004.39
2023-05-09T05:19:44.750Z,1004.36
2023-05-09T05:20:44.615Z,1004.34
2023-05-09T05:21:44.771Z,1004.33
2023-05-09T05:22:44.695Z,1004.38
2023-05-09T05:23:44.983Z,1004.37
2023-05-09T05:24:45.099Z,1004.36
2023-05-09T05:25:44.584Z,1004.32
2023-05-09T05:26:44.820Z,1004.32
2023-05-09T05:27:44.701Z,1004.32
2023-05-09T05:28:44.612Z,1004.36
2023-05-09T05:29:44.543Z,1004.37
2023-05-09T05:30:45.132Z,1004.33
2023-05-09T05:31:44.635Z,1004.36
2023-05-09T05:32:44.798Z,1004.38
2023-05-09T05:33:44.540Z,1004.38
2023-05-09T05:36:10.702Z,1004.35
2023-05-09T05:37:10.769Z,1004.33
2023-05-09T05:38:10.472Z,1004.33
2023-05-09T05:39:10.785Z,1004.33
2023-05-09T05:40:10.810Z,1004.43
2023-05-09T05:41:10.801Z,1004.37
2023-05-09T05:42:10.807Z,1004.43
2023-05-09T05:43:10.417Z,1004.41
2023-05-09T05:44:10.731Z,1004.36
2023-05-09T05:45:10.419Z,1004.34
2023-05-09T05:46:10.454Z,1004.28
2023-05-09T05:47:10.440Z,1004.35
2023-05-09T05:48:10.623Z,1004.27
2023-05-09T05:49:10.562Z,1004.31
2023-05-09T05:50:10.354Z,1004.21
2023-05-09T05:51:10.812Z,1004.20
2023-05-09T05:52:10.776Z,1004.28
2023-05-09T05:53:10.852Z,1004.27
2023-05-09T05:54:10.977Z,1004.27
2023-05-09T05:55:11.009Z,1004.24
2023-05-09T05:56:10.816Z,1004.26
2023-05-09T05:57:10.298Z,1004.24
2023-05-09T05:58:10.315Z,1004.21
2023-05-09T05:59:11.350Z,1004.23
2023-05-09T06:00:11.047Z,1004.22
2023-05-09T06:01:10.340Z,1004.18
2023-05-09T06:02:10.438Z,1004.20
2023-05-09T06:03:10.318Z,1004.21
2023-05-09T06:04:10.344Z,1004.20
2023-05-09T06:05:11.063Z,1004.17
2023-05-09T06:06:10.262Z,1004.24
2023-05-09T06:07:10.369Z,1004.18
2023-05-09T06:08:10.380Z,1004.14
2023-05-09T06:09:10.383Z,1004.10
2023-05-09T06:10:10.206Z,1004.08
2023-05-09T06:11:10.394Z,1004.13
2023-05-09T06:12:10.205Z,1004.04
2023-05-09T06:13:10.234Z,1004.04
2023-05-09T06:14:10.217Z,1004.00
2023-05-09T06:15:10.331Z,1004.03
2023-05-09T06:17:10.518Z,1003.98
2023-05-09T06:18:10.511Z,1003.97
2023-05-09T06:19:10.450Z,1003.98
2023-05-09T06:20:10.161Z,1003.96
2023-05-09T06:21:10.470Z,1004.01
2023-05-09T06:22:10.481Z,1004.02
2023-05-09T06:23:10.579Z,1003.96
2023-05-09T06:24:19.816Z,1004.01
2023-05-09T06:25:10.717Z,1003.95
2023-05-09T06:26:10.199Z,1003.97
2023-05-09T06:27:10.203Z,1003.93
2023-05-09T06:28:10.215Z,1003.89
2023-05-09T06:29:10.139Z,1003.86
2023-05-09T06:31:10.368Z,1003.91
2023-05-09T06:32:10.349Z,1003.86
2023-05-09T06:33:10.358Z,1003.87
2023-05-09T06:34:10.149Z,1003.83
2023-05-09T06:35:10.535Z,1003.80
2023-05-09T06:36:10.067Z,1003.75
2023-05-09T06:37:10.600Z,1003.69
2023-05-09T06:38:10.603Z,1003.69
2023-05-09T06:39:10.592Z,1003.69
2023-05-09T06:40:10.729Z,1003.67
2023-05-09T06:41:10.995Z,1003.69
2023-05-09T06:42:10.020Z,1003.66
2023-05-09T06:43:10.018Z,1003.65
2023-05-09T06:44:10.119Z,1003.65
2023-05-09T06:45:10.063Z,1003.60
2023-05-09T06:46:10.063Z,1003.60
2023-05-09T06:47:09.960Z,1003.60
2023-05-09T06:48:10.019Z,1003.58
2023-05-09T06:49:09.939Z,1003.57
2023-05-09T06:50:10.072Z,1003.58
2023-05-09T06:51:09.936Z,1003.59
2023-05-09T06:52:10.079Z,1003.59
2023-05-09T06:53:09.977Z,1003.59
2023-05-09T06:54:09.908Z,1003.61
2023-05-09T06:55:10.932Z,1003.58
2023-05-09T06:56:10.415Z,1003.58
2023-05-09T06:57:09.898Z,1003.57
2023-05-09T06:58:09.891Z,1003.56
2023-05-09T06:59:09.921Z,1003.57
2023-05-09T07:00:10.237Z,1003.57
2023-05-09T07:01:10.567Z,1003.55
2023-05-09T07:02:10.455Z,1003.54
2023-05-09T07:03:09.898Z,1003.53
2023-05-09T07:04:10.853Z,1003.55
2023-05-09T07:05:10.302Z,1003.60
2023-05-09T07:06:10.276Z,1003.55
2023-05-09T07:07:10.493Z,1003.48
2023-05-09T07:08:10.083Z,1003.46
2023-05-09T07:09:10.618Z,1003.42
2023-05-09T07:10:11.992Z,1003.42
2023-05-09T07:11:09.806Z,1003.44
2023-05-09T07:12:09.916Z,1003.36
2023-05-09T07:13:09.969Z,1003.39
2023-05-09T07:14:09.821Z,1003.28
2023-05-09T07:15:09.765Z,1003.37
2023-05-09T07:16:09.837Z,1003.29
2023-05-09T07:17:22.072Z,1003.21
2023-05-09T07:18:09.840Z,1003.25
2023-05-09T07:19:09.778Z,1003.23
2023-05-09T07:20:09.788Z,1003.22
2023-05-09T07:21:09.770Z,1003.18
2023-05-09T07:22:09.812Z,1003.13
2023-05-09T07:23:09.802Z,1003.16
2023-05-09T07:24:09.715Z,1003.18
2023-05-09T07:25:09.731Z,1003.12
2023-05-09T07:26:09.722Z,1003.08
2023-05-09T07:27:09.722Z,1003.12
2023-05-09T07:28:09.720Z,1003.10
2023-05-09T07:29:09.736Z,1003.08
2023-05-09T07:30:09.740Z,1003.12
2023-05-09T07:31:09.737Z,1003.09
2023-05-09T07:32:09.794Z,1003.09
2023-05-09T07:33:09.728Z,1002.98
2023-05-09T07:34:09.653Z,1003.05
2023-05-09T07:35:09.700Z,1002.99
2023-05-09T07:36:09.882Z,1003.05
2023-05-09T07:37:09.679Z,1003.05
2023-05-09T07:38:09.890Z,1003.00
2023-05-09T07:39:09.591Z,1003.03
2023-05-09T07:40:09.605Z,1003.00
2023-05-09T07:41:09.732Z,1002.98
2023-05-09T07:42:09.736Z,1002.95
2023-05-09T07:43:09.837Z,1002.96
2023-05-09T07:44:09.745Z,1002.93
2023-05-09T07:45:09.959Z,1002.94
2023-05-09T07:46:09.993Z,1002.90
2023-05-09T07:47:09.536Z,1002.88
2023-05-09T07:48:09.685Z,1002.84
2023-05-09T07:49:09.781Z,1002.81
2023-05-09T07:50:09.769Z,1002.79
2023-05-09T07:51:09.584Z,1002.84
2023-05-09T07:52:10.089Z,1002.82
2023-05-09T07:53:09.795Z,1002.84
2023-05-09T07:54:09.588Z,1002.85
2023-05-09T07:55:10.122Z,1002.83
2023-05-09T07:56:09.806Z,1002.78
2023-05-09T07:57:10.132Z,1002.82
2023-05-09T07:58:10.133Z,1002.77
2023-05-09T07:59:09.455Z,1002.82
2023-05-09T08:00:09.727Z,1002.78
2023-05-09T08:01:09.886Z,1002.76
2023-05-09T08:02:10.192Z,1002.82
2023-05-09T08:03:10.461Z,1002.79
2023-05-09T08:04:09.996Z,1002.74
2023-05-09T08:05:10.081Z,1002.77
2023-05-09T08:06:09.880Z,1002.72
2023-05-09T08:07:09.480Z,1002.73
2023-05-09T08:08:09.488Z,1002.71
2023-05-09T08:09:09.406Z,1002.68
2023-05-09T08:10:09.370Z,1002.67
2023-05-09T08:11:09.504Z,1002.61
2023-05-09T08:12:09.517Z,1002.58
2023-05-09T08:13:09.681Z,1002.52
2023-05-09T08:14:09.425Z,1002.54
2023-05-09T08:15:09.454Z,1002.58
2023-05-09T08:16:09.826Z,1002.60
2023-05-09T08:17:09.867Z,1002.62
2023-05-09T08:18:09.972Z,1002.55
2023-05-09T08:19:09.979Z,1002.52
2023-05-09T08:20:09.369Z,1002.55
2023-05-09T08:21:09.376Z,1002.56
2023-05-09T08:22:09.388Z,1002.52
2023-05-09T08:23:09.297Z,1002.53
2023-05-09T08:24:09.301Z,1002.51
2023-05-09T08:25:09.307Z,1002.46
2023-05-09T08:26:09.406Z,1002.45
2023-05-09T08:27:09.423Z,1002.46
2023-05-09T08:28:09.449Z,1002.49
2023-05-09T08:29:09.449Z,1002.46
2023-05-09T08:30:09.371Z,1002.44
2023-05-09T08:31:09.391Z,1002.41
2023-05-09T08:32:09.574Z,1002.35
2023-05-09T08:33:09.728Z,1002.34
2023-05-09T08:34:09.258Z,1002.33
2023-05-09T08:35:09.293Z,1002.29
2023-05-09T08:36:09.198Z,1002.33
2023-05-09T08:37:09.199Z,1002.29
2023-05-09T08:38:09.258Z,1002.28
2023-05-09T08:39:09.193Z,1002.36
2023-05-09T08:40:09.419Z,1002.30
2023-05-09T08:41:09.214Z,1002.22
2023-05-09T08:42:09.340Z,1002.28
2023-05-09T08:43:09.441Z,1002.22
2023-05-09T08:44:09.231Z,1002.27
2023-05-09T08:45:09.254Z,1002.22
2023-05-09T08:46:09.168Z,1002.16
2023-05-09T08:47:09.458Z,1002.16
2023-05-09T08:48:09.179Z,1002.13
2023-05-09T08:49:09.903Z,1002.13
2023-05-09T08:50:09.074Z,1002.07
2023-05-09T08:51:09.177Z,1002.07
2023-05-09T08:52:09.181Z,1002.03
2023-05-09T08:53:09.296Z,1001.97
2023-05-09T08:54:09.501Z,1002.00
2023-05-09T08:55:09.109Z,1002.02
2023-05-09T08:56:09.222Z,1001.95
2023-05-09T08:57:09.233Z,1001.94
2023-05-09T08:58:10.469Z,1001.93
2023-05-09T08:59:09.848Z,1001.94
2023-05-09T09:00:09.866Z,1001.93
2023-05-09T09:01:09.149Z,1002.01
2023-05-09T09:02:10.102Z,1001.92
2023-05-09T09:03:09.643Z,1001.96
2023-05-09T09:04:09.282Z,1001.96
2023-05-09T09:05:19.635Z,1001.94
2023-05-09T09:06:08.994Z,1001.88
2023-05-09T09:07:08.992Z,1001.89
2023-05-09T09:08:09.100Z,1001.88
2023-05-09T09:09:09.034Z,1001.84
2023-05-09T09:10:09.000Z,1001.81
2023-05-09T09:11:09.339Z,1001.79
2023-05-09T09:12:09.232Z,1001.79
2023-05-09T09:13:09.453Z,1001.80
2023-05-09T09:14:08.928Z,1001.78
2023-05-09T09:15:09.457Z,1001.81
2023-05-09T09:16:08.965Z,1001.79
2023-05-09T09:17:09.576Z,1001.78
2023-05-09T09:18:11.776Z,1001.72
2023-05-09T09:19:09.696Z,1001.68
2023-05-09T09:20:09.833Z,1001.68
2023-05-09T09:21:08.889Z,1001.68
2023-05-09T09:22:08.898Z,1001.69
2023-05-09T09:23:08.924Z,1001.70
2023-05-09T09:24:08.988Z,1001.67
2023-05-09T09:25:08.920Z,1001.68
2023-05-09T09:26:08.918Z,1001.63
2023-05-09T09:27:08.947Z,1001.57
2023-05-09T09:28:09.030Z,1001.61
2023-05-09T09:29:09.148Z,1001.57
2023-05-09T09:30:08.854Z,1001.59
2023-05-09T09:31:08.970Z,1001.57
2023-05-09T09:32:08.955Z,1001.56
2023-05-09T09:33:08.839Z,1001.51
2023-05-09T09:34:08.796Z,1001.48
2023-05-09T09:35:08.803Z,1001.53
2023-05-09T09:36:08.801Z,1001.49
2023-05-09T09:37:08.803Z,1001.55
2023-05-09T09:38:08.793Z,1001.48
2023-05-09T09:39:08.805Z,1001.45
2023-05-09T09:40:08.819Z,1001.45
2023-05-09T09:41:08.921Z,1001.40
2023-05-09T09:42:08.925Z,1001.42
2023-05-09T09:43:08.838Z,1001.38
2023-05-09T09:44:09.013Z,1001.40
2023-05-09T09:45:08.762Z,1001.35
2023-05-09T09:46:08.786Z,1001.37
2023-05-09T09:47:08.957Z,1001.39
2023-05-09T09:48:08.732Z,1001.40
2023-05-09T09:49:08.977Z,1001.38
2023-05-09T09:50:08.790Z,1001.35
2023-05-09T09:51:08.917Z,1001.40
2023-05-09T09:52:08.707Z,1001.33
2023-05-09T09:53:08.693Z,1001.32
2023-05-09T09:54:08.800Z,1001.31
2023-05-09T09:55:09.020Z,1001.28
2023-05-09T09:56:09.022Z,1001.33
2023-05-09T09:57:09.139Z,1001.30
2023-05-09T09:58:08.932Z,1001.28
2023-05-09T09:59:08.676Z,1001.20
2023-05-09T10:00:09.218Z,1001.25
2023-05-09T10:01:09.317Z,1001.25
2023-05-09T10:02:08.991Z,1001.27
2023-05-09T10:03:08.673Z,1001.25
2023-05-09T10:04:08.780Z,1001.22
2023-05-09T10:05:08.692Z,1001.23
2023-05-09T10:06:08.718Z,1001.22
2023-05-09T10:07:09.031Z,1001.21
2023-05-09T10:08:08.590Z,1001.18
2023-05-09T10:09:09.021Z,1001.20
2023-05-09T10:10:09.028Z,1001.19
2023-05-09T10:11:08.623Z,1001.15
2023-05-09T10:12:08.564Z,1001.13
2023-05-09T10:13:08.875Z,1001.14
2023-05-09T10:14:09.259Z,1001.17
2023-05-09T10:15:08.852Z,1001.22
2023-05-09T10:16:09.000Z,1001.17
2023-05-09T10:17:08.661Z,1001.21
2023-05-09T10:18:08.645Z,1001.13
2023-05-09T10:19:08.504Z,1001.18
2023-05-09T10:20:08.478Z,1001.15
2023-05-09T10:21:08.486Z,1001.11
2023-05-09T10:22:08.499Z,1001.09
2023-05-09T10:23:08.528Z,1001.09
2023-05-09T10:24:08.605Z,1001.12
2023-05-09T10:25:08.424Z,1001.13
2023-05-09T10:26:08.435Z,1001.01
2023-05-09T10:27:08.549Z,1001.07
2023-05-09T10:28:08.437Z,1001.03
2023-05-09T10:29:08.546Z,1001.09
2023-05-09T10:30:08.707Z,1000.98
2023-05-09T10:31:08.956Z,1000.94
2023-05-09T10:32:08.362Z,1000.95
2023-05-09T10:33:08.441Z,1000.97
2023-05-09T10:34:08.384Z,1000.87
2023-05-09T10:35:08.369Z,1000.90
2023-05-09T10:36:08.587Z,1000.87
2023-05-09T10:37:08.702Z,1000.82
2023-05-09T10:38:08.727Z,1000.88
2023-05-09T10:39:08.726Z,1000.88
2023-05-09T10:40:08.524Z,1000.83
2023-05-09T10:41:08.323Z,1000.79
2023-05-09T10:42:08.728Z,1000.78
2023-05-09T10:43:08.534Z,1000.79
2023-05-09T10:44:08.847Z,1000.74
2023-05-09T10:45:08.865Z,1000.70
2023-05-09T10:46:08.334Z,1000.69
2023-05-09T10:47:08.596Z,1000.69
2023-05-09T10:48:09.059Z,1000.66
2023-05-09T10:49:08.673Z,1000.64
2023-05-09T10:50:08.264Z,1000.64
2023-05-09T10:51:08.909Z,1000.60
2023-05-09T10:52:08.841Z,1000.67
2023-05-09T10:53:09.024Z,1000.59
2023-05-09T10:54:08.913Z,1000.55
2023-05-09T10:55:08.304Z,1000.53
2023-05-09T10:56:08.211Z,1000.50
2023-05-09T10:57:08.526Z,1000.55
2023-05-09T10:58:08.232Z,1000.47
2023-05-09T10:59:08.237Z,1000.40
2023-05-09T11:00:08.240Z,1000.43
2023-05-09T11:01:08.264Z,1000.39
2023-05-09T11:02:08.166Z,1000.36
2023-05-09T11:03:08.381Z,1000.39
2023-05-09T11:04:08.505Z,1000.36
2023-05-09T11:05:08.619Z,1000.37
2023-05-09T11:06:08.172Z,1000.33
2023-05-09T11:07:08.409Z,1000.38
2023-05-09T11:08:08.501Z,1000.33
2023-05-09T11:09:08.827Z,1000.29
2023-05-09T11:10:08.234Z,1000.31
2023-05-09T11:11:08.528Z,1000.33
2023-05-09T11:12:08.630Z,1000.22
2023-05-09T11:13:08.685Z,1000.24
2023-05-09T11:14:08.060Z,1000.17
2023-05-09T11:15:08.092Z,1000.13
2023-05-09T11:16:08.058Z,1000.17
2023-05-09T11:17:08.053Z,1000.18
2023-05-09T11:18:08.467Z,1000.16
2023-05-09T11:19:08.098Z,1000.13
2023-05-09T11:20:08.100Z,1000.07
2023-05-09T11:21:08.083Z,1000.14
2023-05-09T11:22:08.086Z,1000.11
2023-05-09T11:23:08.008Z,1000.09
2023-05-09T11:24:07.998Z,1000.11
2023-05-09T11:25:08.026Z,1000.08
2023-05-09T11:26:08.048Z,1000.10
2023-05-09T11:27:08.028Z,1000.03
2023-05-09T11:28:08.038Z,1000.02
2023-05-09T11:29:07.965Z,1000.03
2023-05-09T11:30:07.964Z,1000.02
2023-05-09T11:31:08.065Z,999.97
2023-05-09T11:32:08.149Z,999.98
2023-05-09T11:33:07.992Z,999.94
2023-05-09T11:35:34.170Z,999.86
2023-05-09T11:36:34.132Z,999.92
2023-05-09T11:37:34.435Z,999.87
2023-05-09T11:38:34.420Z,999.85
2023-05-09T11:39:34.125Z,999.83
2023-05-09T11:40:33.883Z,999.83
2023-05-09T11:41:33.839Z,999.77
2023-05-09T11:42:34.129Z,999.78
2023-05-09T11:43:34.148Z,999.82
2023-05-09T11:44:34.338Z,999.82
2023-05-09T11:45:34.561Z,999.85
2023-05-09T11:46:34.577Z,999.67
2023-05-09T11:47:34.033Z,999.80
2023-05-09T11:48:34.204Z,999.71
2023-05-09T11:49:34.591Z,999.61
2023-05-09T11:50:34.191Z,999.68
2023-05-09T11:51:33.799Z,999.63
2023-05-09T11:52:33.760Z,999.59
2023-05-09T11:53:33.795Z,999.60
2023-05-09T11:54:33.909Z,999.57
2023-05-09T11:55:33.985Z,999.56
2023-05-09T11:56:33.752Z,999.52
2023-05-09T11:57:33.917Z,999.55
2023-05-09T11:58:33.917Z,999.54
2023-05-09T11:59:33.739Z,999.49
2023-05-09T12:00:33.822Z,999.45
2023-05-09T12:01:33.699Z,999.46
2023-05-09T12:02:33.751Z,999.49
2023-05-09T12:03:33.751Z,999.43
2023-05-09T12:04:33.714Z,999.47
2023-05-09T12:05:33.712Z,999.41
2023-05-09T12:06:33.705Z,999.43
2023-05-09T12:07:33.698Z,999.35
2023-05-09T12:08:33.833Z,999.34
2023-05-09T12:09:33.801Z,999.39
2023-05-09T12:10:33.728Z,999.40
2023-05-09T12:11:33.616Z,999.30
2023-05-09T12:12:33.619Z,999.41